Terminal Aerodrome Forecast
Issued by NWS

Home | Current Version | Previous Version | Text Only | Print | Product List | Glossary On
Versions: 1 2 3 4 5 6 7 8 9 10 11 12 13 14 15 16 17 18 19 20 21
000
FTUS43 KBIS 260500
TAFDIK
TAF
KDIK 260521Z 2606/2706 27009KT P6SM SKC
     FM261400 29020G30KT P6SM SCT080
     FM261800 30026G34KT P6SM SCT080
     FM270200 31012KT P6SM FEW080=

USA.gov is the U.S. government's official web portal to all federal, state and local government web resources and services.